Ash Ridge, Ohio
Current Conditions -  °F | °C
As of 3:15 PM on Friday 31 Oct 2014 (Local Time) from KFGX Reporting Station
Heavy Rain Heavy Rain  
Wind Chill: 37°   Ceiling: 1000
Heat Index: 44°   Visibility: 3mi
Dew Point: 42°   Wind: 14mph
Humidity: 91%   Direction: 270°W
Pressure: 29.88"   Gusts: NA
Location:  38.8698°N, 83.9081°W
Report Text: KFGX 311915Z AUTO 27012KT 3SM +RA BKN010 BKN014 OVC019 07/05 A2988 RMK AO2 T00670054
Loading
Personal Weather Stations






























Interactive Weather Map New forecast layout! Learn more

10-Day Weather Forecast

Advertisements
Track Severe Weather on mobile